sensor_id;sensor_type;location;lat;lon;timestamp;temperature;humidity
30648;DHT22;17683;53.360;9.736;2023-07-24T00:01:32;17.90;99.90
30648;DHT22;17683;53.360;9.736;2023-07-24T00:03:58;17.90;99.90
30648;DHT22;17683;53.360;9.736;2023-07-24T00:06:24;18.00;99.90
30648;DHT22;17683;53.360;9.736;2023-07-24T00:08:50;18.00;99.90
30648;DHT22;17683;53.360;9.736;2023-07-24T00:11:15;17.90;99.90
30648;DHT22;17683;53.360;9.736;2023-07-24T00:13:41;17.90;99.90
30648;DHT22;17683;53.360;9.736;2023-07-24T00:16:08;17.90;99.90
30648;DHT22;17683;53.360;9.736;2023-07-24T00:18:34;17.90;99.90
30648;DHT22;17683;53.360;9.736;2023-07-24T00:21:00;17.90;99.90
30648;DHT22;17683;53.360;9.736;2023-07-24T00:23:25;17.90;99.90
30648;DHT22;17683;53.360;9.736;2023-07-24T00:25:51;17.90;99.90
30648;DHT22;17683;53.360;9.736;2023-07-24T00:28:16;17.90;99.90
30648;DHT22;17683;53.360;9.736;2023-07-24T00:30:42;17.90;99.90
30648;DHT22;17683;53.360;9.736;2023-07-24T00:33:08;17.90;99.90
30648;DHT22;17683;53.360;9.736;2023-07-24T00:35:34;18.00;99.90
30648;DHT22;17683;53.360;9.736;2023-07-24T00:37:59;17.90;99.90
30648;DHT22;17683;53.360;9.736;2023-07-24T00:40:25;17.90;99.90
30648;DHT22;17683;53.360;9.736;2023-07-24T00:42:51;17.90;99.90
30648;DHT22;17683;53.360;9.736;2023-07-24T00:45:17;17.90;99.90
30648;DHT22;17683;53.360;9.736;2023-07-24T00:47:43;17.90;99.90
30648;DHT22;17683;53.360;9.736;2023-07-24T00:50:09;17.90;99.90
30648;DHT22;17683;53.360;9.736;2023-07-24T00:52:36;17.90;99.90
30648;DHT22;17683;53.360;9.736;2023-07-24T00:55:02;17.90;99.90
30648;DHT22;17683;53.360;9.736;2023-07-24T00:57:28;17.90;99.90
30648;DHT22;17683;53.360;9.736;2023-07-24T00:59:54;17.90;99.90
30648;DHT22;17683;53.360;9.736;2023-07-24T01:02:20;18.00;99.90
30648;DHT22;17683;53.360;9.736;2023-07-24T01:04:46;18.00;99.90
30648;DHT22;17683;53.360;9.736;2023-07-24T01:07:12;18.00;99.90
30648;DHT22;17683;53.360;9.736;2023-07-24T01:09:38;18.00;99.90
30648;DHT22;17683;53.360;9.736;2023-07-24T01:12:32;18.00;99.90
30648;DHT22;17683;53.360;9.736;2023-07-24T01:15:24;18.00;99.90
30648;DHT22;17683;53.360;9.736;2023-07-24T01:18:09;18.10;99.90
30648;DHT22;17683;53.360;9.736;2023-07-24T01:20:42;18.10;99.90
30648;DHT22;17683;53.360;9.736;2023-07-24T01:26:13;18.10;99.90
30648;DHT22;17683;53.360;9.736;2023-07-24T01:28:39;18.10;99.90
30648;DHT22;17683;53.360;9.736;2023-07-24T01:31:05;18.10;99.90
30648;DHT22;17683;53.360;9.736;2023-07-24T01:33:31;18.10;99.90
30648;DHT22;17683;53.360;9.736;2023-07-24T01:36:01;18.10;99.90
30648;DHT22;17683;53.360;9.736;2023-07-24T01:38:28;18.10;99.90
30648;DHT22;17683;53.360;9.736;2023-07-24T01:40:57;18.10;99.90
30648;DHT22;17683;53.360;9.736;2023-07-24T01:43:24;18.10;99.90
30648;DHT22;17683;53.360;9.736;2023-07-24T01:45:51;18.10;99.90
30648;DHT22;17683;53.360;9.736;2023-07-24T01:48:17;18.10;99.90
30648;DHT22;17683;53.360;9.736;2023-07-24T01:50:42;18.10;99.90
30648;DHT22;17683;53.360;9.736;2023-07-24T01:53:08;18.10;99.90
30648;DHT22;17683;53.360;9.736;2023-07-24T01:55:35;18.20;99.90
30648;DHT22;17683;53.360;9.736;2023-07-24T01:58:00;18.10;99.90
30648;DHT22;17683;53.360;9.736;2023-07-24T02:00:26;18.20;99.90
30648;DHT22;17683;53.360;9.736;2023-07-24T02:02:52;18.10;99.90
30648;DHT22;17683;53.360;9.736;2023-07-24T02:05:17;18.10;99.90
30648;DHT22;17683;53.360;9.736;2023-07-24T02:07:43;18.10;99.90
30648;DHT22;17683;53.360;9.736;2023-07-24T02:10:09;18.10;99.90
30648;DHT22;17683;53.360;9.736;2023-07-24T02:12:35;18.10;99.90
30648;DHT22;17683;53.360;9.736;2023-07-24T02:15:01;18.10;99.90
30648;DHT22;17683;53.360;9.736;2023-07-24T02:17:26;18.10;99.90
30648;DHT22;17683;53.360;9.736;2023-07-24T02:19:52;18.10;99.90
30648;DHT22;17683;53.360;9.736;2023-07-24T02:22:18;18.10;99.90
30648;DHT22;17683;53.360;9.736;2023-07-24T02:24:43;18.20;99.90
30648;DHT22;17683;53.360;9.736;2023-07-24T02:27:12;18.10;99.90
30648;DHT22;17683;53.360;9.736;2023-07-24T02:29:39;18.00;99.90
30648;DHT22;17683;53.360;9.736;2023-07-24T02:32:05;18.00;99.90
30648;DHT22;17683;53.360;9.736;2023-07-24T02:34:31;18.00;99.90
30648;DHT22;17683;53.360;9.736;2023-07-24T02:36:56;18.00;99.90
30648;DHT22;17683;53.360;9.736;2023-07-24T02:39:22;18.00;99.90
30648;DHT22;17683;53.360;9.736;2023-07-24T02:41:48;18.00;99.90
30648;DHT22;17683;53.360;9.736;2023-07-24T02:44:15;17.90;99.90
30648;DHT22;17683;53.360;9.736;2023-07-24T02:46:40;17.90;99.90
30648;DHT22;17683;53.360;9.736;2023-07-24T02:49:06;17.90;99.90
30648;DHT22;17683;53.360;9.736;2023-07-24T02:51:32;17.90;99.90
30648;DHT22;17683;53.360;9.736;2023-07-24T02:53:58;17.90;99.90
30648;DHT22;17683;53.360;9.736;2023-07-24T02:56:23;17.80;99.90
30648;DHT22;17683;53.360;9.736;2023-07-24T02:58:49;17.80;99.90
30648;DHT22;17683;53.360;9.736;2023-07-24T03:01:15;17.80;99.90
30648;DHT22;17683;53.360;9.736;2023-07-24T03:03:41;17.70;99.90
30648;DHT22;17683;53.360;9.736;2023-07-24T03:06:07;17.70;99.90
30648;DHT22;17683;53.360;9.736;2023-07-24T03:08:33;17.70;99.90
30648;DHT22;17683;53.360;9.736;2023-07-24T03:10:59;17.60;99.90
30648;DHT22;17683;53.360;9.736;2023-07-24T03:13:25;17.60;99.90
30648;DHT22;17683;53.360;9.736;2023-07-24T03:15:55;17.60;99.90
30648;DHT22;17683;53.360;9.736;2023-07-24T03:18:21;17.60;99.90
30648;DHT22;17683;53.360;9.736;2023-07-24T03:20:47;17.60;99.90
30648;DHT22;17683;53.360;9.736;2023-07-24T03:23:12;17.50;99.90
30648;DHT22;17683;53.360;9.736;2023-07-24T03:25:38;17.50;99.90
30648;DHT22;17683;53.360;9.736;2023-07-24T03:28:04;17.50;99.90
30648;DHT22;17683;53.360;9.736;2023-07-24T03:30:30;17.50;99.90
30648;DHT22;17683;53.360;9.736;2023-07-24T03:32:56;17.50;99.90
30648;DHT22;17683;53.360;9.736;2023-07-24T03:35:22;17.50;99.90
30648;DHT22;17683;53.360;9.736;2023-07-24T03:37:47;17.50;99.90
30648;DHT22;17683;53.360;9.736;2023-07-24T03:40:13;17.50;99.90
30648;DHT22;17683;53.360;9.736;2023-07-24T03:42:39;17.40;99.90
30648;DHT22;17683;53.360;9.736;2023-07-24T03:45:06;17.40;99.90
30648;DHT22;17683;53.360;9.736;2023-07-24T03:47:32;17.40;99.90
30648;DHT22;17683;53.360;9.736;2023-07-24T03:49:58;17.30;99.90
30648;DHT22;17683;53.360;9.736;2023-07-24T03:52:23;17.40;99.90
30648;DHT22;17683;53.360;9.736;2023-07-24T03:54:50;17.40;99.90
30648;DHT22;17683;53.360;9.736;2023-07-24T03:57:16;17.40;99.90
30648;DHT22;17683;53.360;9.736;2023-07-24T03:59:41;17.30;99.90
30648;DHT22;17683;53.360;9.736;2023-07-24T04:02:07;17.30;99.90
30648;DHT22;17683;53.360;9.736;2023-07-24T04:04:33;17.30;99.90
30648;DHT22;17683;53.360;9.736;2023-07-24T04:06:59;17.30;99.90
30648;DHT22;17683;53.360;9.736;2023-07-24T04:09:24;17.30;99.90
30648;DHT22;17683;53.360;9.736;2023-07-24T04:11:50;17.30;99.90
30648;DHT22;17683;53.360;9.736;2023-07-24T04:14:16;17.30;99.90
30648;DHT22;17683;53.360;9.736;2023-07-24T04:16:41;17.30;99.90
30648;DHT22;17683;53.360;9.736;2023-07-24T04:19:07;17.30;99.90
30648;DHT22;17683;53.360;9.736;2023-07-24T04:21:34;17.40;99.90
30648;DHT22;17683;53.360;9.736;2023-07-24T04:23:59;17.40;99.90
30648;DHT22;17683;53.360;9.736;2023-07-24T04:26:25;17.40;99.90
30648;DHT22;17683;53.360;9.736;2023-07-24T04:28:51;17.50;99.90
30648;DHT22;17683;53.360;9.736;2023-07-24T04:31:16;17.50;99.90
30648;DHT22;17683;53.360;9.736;2023-07-24T04:33:42;17.50;99.90
30648;DHT22;17683;53.360;9.736;2023-07-24T04:36:08;17.60;99.90
30648;DHT22;17683;53.360;9.736;2023-07-24T04:38:33;17.60;99.90
30648;DHT22;17683;53.360;9.736;2023-07-24T04:41:02;17.60;99.90
30648;DHT22;17683;53.360;9.736;2023-07-24T04:43:29;17.60;99.90
30648;DHT22;17683;53.360;9.736;2023-07-24T04:45:54;17.60;99.90
30648;DHT22;17683;53.360;9.736;2023-07-24T04:48:20;17.70;99.90
30648;DHT22;17683;53.360;9.736;2023-07-24T04:50:46;17.70;99.90
30648;DHT22;17683;53.360;9.736;2023-07-24T04:53:11;17.70;99.90
30648;DHT22;17683;53.360;9.736;2023-07-24T04:55:37;17.80;99.90
30648;DHT22;17683;53.360;9.736;2023-07-24T04:58:03;17.80;99.90
30648;DHT22;17683;53.360;9.736;2023-07-24T05:00:28;17.80;99.90
30648;DHT22;17683;53.360;9.736;2023-07-24T05:02:54;17.80;99.90
30648;DHT22;17683;53.360;9.736;2023-07-24T05:05:20;17.90;99.90
30648;DHT22;17683;53.360;9.736;2023-07-24T05:07:46;17.90;99.90
30648;DHT22;17683;53.360;9.736;2023-07-24T05:10:11;17.90;99.90
30648;DHT22;17683;53.360;9.736;2023-07-24T05:12:41;18.00;99.90
30648;DHT22;17683;53.360;9.736;2023-07-24T05:15:08;18.10;99.90
30648;DHT22;17683;53.360;9.736;2023-07-24T05:17:33;18.20;99.90
30648;DHT22;17683;53.360;9.736;2023-07-24T05:19:59;18.30;99.90
30648;DHT22;17683;53.360;9.736;2023-07-24T05:22:25;18.30;99.90
30648;DHT22;17683;53.360;9.736;2023-07-24T05:24:50;18.40;99.90
30648;DHT22;17683;53.360;9.736;2023-07-24T05:27:16;18.40;99.90
30648;DHT22;17683;53.360;9.736;2023-07-24T05:29:42;18.50;99.90
30648;DHT22;17683;53.360;9.736;2023-07-24T05:32:07;18.60;99.90
30648;DHT22;17683;53.360;9.736;2023-07-24T05:34:33;18.70;99.90
30648;DHT22;17683;53.360;9.736;2023-07-24T05:36:59;18.70;99.90
30648;DHT22;17683;53.360;9.736;2023-07-24T05:39:24;18.70;99.90
30648;DHT22;17683;53.360;9.736;2023-07-24T05:41:50;18.80;99.90
30648;DHT22;17683;53.360;9.736;2023-07-24T05:44:16;18.80;99.90
30648;DHT22;17683;53.360;9.736;2023-07-24T05:46:41;18.70;99.90
30648;DHT22;17683;53.360;9.736;2023-07-24T05:49:07;18.70;99.90
30648;DHT22;17683;53.360;9.736;2023-07-24T05:51:33;18.70;99.90
30648;DHT22;17683;53.360;9.736;2023-07-24T05:53:58;18.70;99.90
30648;DHT22;17683;53.360;9.736;2023-07-24T05:56:24;18.70;99.90
30648;DHT22;17683;53.360;9.736;2023-07-24T05:58:50;18.70;99.90
30648;DHT22;17683;53.360;9.736;2023-07-24T06:01:16;18.80;99.90
30648;DHT22;17683;53.360;9.736;2023-07-24T06:03:41;18.80;99.90
30648;DHT22;17683;53.360;9.736;2023-07-24T06:06:07;18.80;99.90
30648;DHT22;17683;53.360;9.736;2023-07-24T06:08:33;18.90;99.90
30648;DHT22;17683;53.360;9.736;2023-07-24T06:10:58;19.00;99.90
30648;DHT22;17683;53.360;9.736;2023-07-24T06:13:24;19.00;99.90
30648;DHT22;17683;53.360;9.736;2023-07-24T06:15:51;19.00;99.90
30648;DHT22;17683;53.360;9.736;2023-07-24T06:18:17;19.00;99.90
30648;DHT22;17683;53.360;9.736;2023-07-24T06:20:43;19.10;99.90
30648;DHT22;17683;53.360;9.736;2023-07-24T06:23:09;19.10;99.90
30648;DHT22;17683;53.360;9.736;2023-07-24T06:25:35;19.10;99.90
30648;DHT22;17683;53.360;9.736;2023-07-24T06:28:00;19.20;99.90
30648;DHT22;17683;53.360;9.736;2023-07-24T06:30:26;19.20;99.90
30648;DHT22;17683;53.360;9.736;2023-07-24T06:32:52;19.30;99.90
30648;DHT22;17683;53.360;9.736;2023-07-24T06:35:18;19.30;99.90
30648;DHT22;17683;53.360;9.736;2023-07-24T06:37:43;19.40;99.90
30648;DHT22;17683;53.360;9.736;2023-07-24T06:40:09;19.40;99.90
30648;DHT22;17683;53.360;9.736;2023-07-24T06:42:35;19.40;99.90
30648;DHT22;17683;53.360;9.736;2023-07-24T06:45:01;19.40;99.90
30648;DHT22;17683;53.360;9.736;2023-07-24T06:47:27;19.40;99.90
30648;DHT22;17683;53.360;9.736;2023-07-24T06:49:52;19.40;99.90
30648;DHT22;17683;53.360;9.736;2023-07-24T06:52:18;19.40;99.90
30648;DHT22;17683;53.360;9.736;2023-07-24T06:54:44;19.40;99.90
30648;DHT22;17683;53.360;9.736;2023-07-24T06:57:09;19.40;99.90
30648;DHT22;17683;53.360;9.736;2023-07-24T06:59:35;19.30;99.90
30648;DHT22;17683;53.360;9.736;2023-07-24T07:02:01;19.40;99.90
30648;DHT22;17683;53.360;9.736;2023-07-24T07:04:26;19.30;99.90
30648;DHT22;17683;53.360;9.736;2023-07-24T07:06:52;19.30;99.90
30648;DHT22;17683;53.360;9.736;2023-07-24T07:09:19;19.30;99.90
30648;DHT22;17683;53.360;9.736;2023-07-24T07:11:45;19.20;99.90
30648;DHT22;17683;53.360;9.736;2023-07-24T07:14:10;19.20;99.90
30648;DHT22;17683;53.360;9.736;2023-07-24T07:16:36;19.20;99.90
30648;DHT22;17683;53.360;9.736;2023-07-24T07:19:02;19.30;99.90
30648;DHT22;17683;53.360;9.736;2023-07-24T07:21:28;19.20;99.90
30648;DHT22;17683;53.360;9.736;2023-07-24T07:23:53;19.30;99.90
30648;DHT22;17683;53.360;9.736;2023-07-24T07:26:20;19.30;99.90
30648;DHT22;17683;53.360;9.736;2023-07-24T07:28:45;19.30;99.90
30648;DHT22;17683;53.360;9.736;2023-07-24T07:31:11;19.30;99.90
30648;DHT22;17683;53.360;9.736;2023-07-24T07:33:38;19.30;99.90
30648;DHT22;17683;53.360;9.736;2023-07-24T07:36:04;19.30;99.90
30648;DHT22;17683;53.360;9.736;2023-07-24T07:38:31;19.30;99.90
30648;DHT22;17683;53.360;9.736;2023-07-24T07:40:57;19.30;99.90
30648;DHT22;17683;53.360;9.736;2023-07-24T07:43:23;19.30;99.90
30648;DHT22;17683;53.360;9.736;2023-07-24T07:45:48;19.20;99.90
30648;DHT22;17683;53.360;9.736;2023-07-24T07:48:14;19.20;99.90
30648;DHT22;17683;53.360;9.736;2023-07-24T07:50:40;19.20;99.90
30648;DHT22;17683;53.360;9.736;2023-07-24T07:53:06;19.20;99.90
30648;DHT22;17683;53.360;9.736;2023-07-24T07:55:32;19.20;99.90
30648;DHT22;17683;53.360;9.736;2023-07-24T07:57:57;19.10;99.90
30648;DHT22;17683;53.360;9.736;2023-07-24T08:00:23;19.10;99.90
30648;DHT22;17683;53.360;9.736;2023-07-24T08:02:49;19.20;99.90
30648;DHT22;17683;53.360;9.736;2023-07-24T08:05:15;19.20;99.90
30648;DHT22;17683;53.360;9.736;2023-07-24T08:07:41;19.20;99.90
30648;DHT22;17683;53.360;9.736;2023-07-24T08:10:07;19.20;99.90
30648;DHT22;17683;53.360;9.736;2023-07-24T08:12:33;19.20;99.90
30648;DHT22;17683;53.360;9.736;2023-07-24T08:14:58;19.20;99.90
30648;DHT22;17683;53.360;9.736;2023-07-24T08:17:24;19.30;99.90
30648;DHT22;17683;53.360;9.736;2023-07-24T08:19:50;19.40;99.90
30648;DHT22;17683;53.360;9.736;2023-07-24T08:22:15;19.50;99.90
30648;DHT22;17683;53.360;9.736;2023-07-24T08:24:41;19.70;99.90
30648;DHT22;17683;53.360;9.736;2023-07-24T08:27:07;19.90;99.90
30648;DHT22;17683;53.360;9.736;2023-07-24T08:29:32;20.00;99.90
30648;DHT22;17683;53.360;9.736;2023-07-24T08:32:00;20.00;99.90
30648;DHT22;17683;53.360;9.736;2023-07-24T08:34:26;20.10;99.90
30648;DHT22;17683;53.360;9.736;2023-07-24T08:36:51;20.20;99.90
30648;DHT22;17683;53.360;9.736;2023-07-24T08:39:17;20.20;99.90
30648;DHT22;17683;53.360;9.736;2023-07-24T08:41:43;20.30;99.90
30648;DHT22;17683;53.360;9.736;2023-07-24T08:44:09;20.40;99.90
30648;DHT22;17683;53.360;9.736;2023-07-24T08:46:38;20.40;99.90
30648;DHT22;17683;53.360;9.736;2023-07-24T08:49:11;20.50;99.90
30648;DHT22;17683;53.360;9.736;2023-07-24T08:51:37;20.60;99.90
30648;DHT22;17683;53.360;9.736;2023-07-24T08:54:04;20.70;99.90
30648;DHT22;17683;53.360;9.736;2023-07-24T08:56:30;20.60;99.90
30648;DHT22;17683;53.360;9.736;2023-07-24T08:58:56;20.60;99.90
30648;DHT22;17683;53.360;9.736;2023-07-24T09:01:21;20.60;99.90
30648;DHT22;17683;53.360;9.736;2023-07-24T09:03:47;20.50;99.90
30648;DHT22;17683;53.360;9.736;2023-07-24T09:06:13;20.60;99.90
30648;DHT22;17683;53.360;9.736;2023-07-24T09:08:43;20.50;99.90
30648;DHT22;17683;53.360;9.736;2023-07-24T09:11:10;20.50;99.90
30648;DHT22;17683;53.360;9.736;2023-07-24T09:13:37;20.50;99.90
30648;DHT22;17683;53.360;9.736;2023-07-24T09:16:03;20.50;99.90
30648;DHT22;17683;53.360;9.736;2023-07-24T09:18:42;20.60;99.90
30648;DHT22;17683;53.360;9.736;2023-07-24T09:21:09;20.60;99.90
30648;DHT22;17683;53.360;9.736;2023-07-24T09:23:37;20.70;99.90
30648;DHT22;17683;53.360;9.736;2023-07-24T09:26:07;20.70;99.90
30648;DHT22;17683;53.360;9.736;2023-07-24T09:28:33;20.70;99.90
30648;DHT22;17683;53.360;9.736;2023-07-24T09:31:00;20.80;99.90
30648;DHT22;17683;53.360;9.736;2023-07-24T09:33:38;20.90;99.90
30648;DHT22;17683;53.360;9.736;2023-07-24T09:36:05;21.00;99.90
30648;DHT22;17683;53.360;9.736;2023-07-24T09:38:33;21.20;99.90
30648;DHT22;17683;53.360;9.736;2023-07-24T09:41:01;21.40;99.90
30648;DHT22;17683;53.360;9.736;2023-07-24T09:43:28;21.60;99.90
30648;DHT22;17683;53.360;9.736;2023-07-24T09:45:55;21.60;99.90
30648;DHT22;17683;53.360;9.736;2023-07-24T09:48:24;21.60;99.90
30648;DHT22;17683;53.360;9.736;2023-07-24T09:50:59;21.70;99.90
30648;DHT22;17683;53.360;9.736;2023-07-24T09:53:44;21.70;99.90
30648;DHT22;17683;53.360;9.736;2023-07-24T09:56:14;21.60;99.90
30648;DHT22;17683;53.360;9.736;2023-07-24T09:58:44;21.60;99.90
30648;DHT22;17683;53.360;9.736;2023-07-24T10:01:10;21.50;99.90
30648;DHT22;17683;53.360;9.736;2023-07-24T10:03:47;21.40;99.90
30648;DHT22;17683;53.360;9.736;2023-07-24T10:06:13;21.40;99.90
30648;DHT22;17683;53.360;9.736;2023-07-24T10:08:40;21.30;99.90
30648;DHT22;17683;53.360;9.736;2023-07-24T10:11:08;21.40;99.90
30648;DHT22;17683;53.360;9.736;2023-07-24T10:13:35;21.40;99.90
30648;DHT22;17683;53.360;9.736;2023-07-24T10:16:02;21.50;99.90
30648;DHT22;17683;53.360;9.736;2023-07-24T10:18:32;21.60;99.90
30648;DHT22;17683;53.360;9.736;2023-07-24T10:21:03;21.60;99.90
30648;DHT22;17683;53.360;9.736;2023-07-24T10:23:29;21.80;99.90
30648;DHT22;17683;53.360;9.736;2023-07-24T10:25:55;21.90;99.90
30648;DHT22;17683;53.360;9.736;2023-07-24T10:28:31;22.00;99.90
30648;DHT22;17683;53.360;9.736;2023-07-24T10:30:57;22.10;99.90
30648;DHT22;17683;53.360;9.736;2023-07-24T10:33:23;22.20;99.90
30648;DHT22;17683;53.360;9.736;2023-07-24T10:36:07;22.30;99.90
30648;DHT22;17683;53.360;9.736;2023-07-24T10:38:40;22.40;99.90
30648;DHT22;17683;53.360;9.736;2023-07-24T10:41:07;22.40;99.90
30648;DHT22;17683;53.360;9.736;2023-07-24T10:43:47;22.30;99.90
30648;DHT22;17683;53.360;9.736;2023-07-24T10:46:13;22.30;99.90
30648;DHT22;17683;53.360;9.736;2023-07-24T10:48:50;22.40;99.90
30648;DHT22;17683;53.360;9.736;2023-07-24T10:51:16;22.30;99.90
30648;DHT22;17683;53.360;9.736;2023-07-24T10:53:49;22.20;99.90
30648;DHT22;17683;53.360;9.736;2023-07-24T10:56:16;22.00;99.90
30648;DHT22;17683;53.360;9.736;2023-07-24T10:58:42;21.90;99.90
30648;DHT22;17683;53.360;9.736;2023-07-24T11:01:08;21.70;99.90
30648;DHT22;17683;53.360;9.736;2023-07-24T11:03:37;21.50;99.90
30648;DHT22;17683;53.360;9.736;2023-07-24T11:06:03;21.50;99.90
30648;DHT22;17683;53.360;9.736;2023-07-24T11:08:29;21.50;99.90
30648;DHT22;17683;53.360;9.736;2023-07-24T11:10:56;21.50;99.90
30648;DHT22;17683;53.360;9.736;2023-07-24T11:13:27;21.50;99.90
30648;DHT22;17683;53.360;9.736;2023-07-24T11:15:54;21.60;99.90
30648;DHT22;17683;53.360;9.736;2023-07-24T11:18:21;21.50;99.90
30648;DHT22;17683;53.360;9.736;2023-07-24T11:20:52;21.60;99.90
30648;DHT22;17683;53.360;9.736;2023-07-24T11:23:18;21.70;99.90
30648;DHT22;17683;53.360;9.736;2023-07-24T11:25:44;21.70;99.90
30648;DHT22;17683;53.360;9.736;2023-07-24T11:28:11;21.60;99.90
30648;DHT22;17683;53.360;9.736;2023-07-24T11:30:37;21.70;99.90
30648;DHT22;17683;53.360;9.736;2023-07-24T11:33:06;21.90;99.90
30648;DHT22;17683;53.360;9.736;2023-07-24T11:35:33;21.80;99.90
30648;DHT22;17683;53.360;9.736;2023-07-24T11:37:59;21.90;99.90
30648;DHT22;17683;53.360;9.736;2023-07-24T11:43:02;22.20;99.90
30648;DHT22;17683;53.360;9.736;2023-07-24T11:45:29;22.30;99.90
30648;DHT22;17683;53.360;9.736;2023-07-24T11:47:55;22.50;99.90
30648;DHT22;17683;53.360;9.736;2023-07-24T11:50:22;22.80;99.90
30648;DHT22;17683;53.360;9.736;2023-07-24T11:52:50;23.00;99.90
30648;DHT22;17683;53.360;9.736;2023-07-24T11:55:29;23.10;99.90
30648;DHT22;17683;53.360;9.736;2023-07-24T11:58:00;23.40;99.90
30648;DHT22;17683;53.360;9.736;2023-07-24T12:00:26;23.50;99.90
30648;DHT22;17683;53.360;9.736;2023-07-24T12:02:58;23.60;99.90
30648;DHT22;17683;53.360;9.736;2023-07-24T12:05:25;23.70;99.90
30648;DHT22;17683;53.360;9.736;2023-07-24T12:07:54;23.70;99.90
30648;DHT22;17683;53.360;9.736;2023-07-24T12:10:27;23.60;99.90
30648;DHT22;17683;53.360;9.736;2023-07-24T12:12:54;23.80;99.90
30648;DHT22;17683;53.360;9.736;2023-07-24T12:15:20;24.00;99.90
30648;DHT22;17683;53.360;9.736;2023-07-24T12:17:45;24.20;99.90
30648;DHT22;17683;53.360;9.736;2023-07-24T12:20:11;24.20;99.90
30648;DHT22;17683;53.360;9.736;2023-07-24T12:22:38;24.20;99.90
30648;DHT22;17683;53.360;9.736;2023-07-24T12:25:05;24.30;99.90
30648;DHT22;17683;53.360;9.736;2023-07-24T12:27:31;24.30;99.90
30648;DHT22;17683;53.360;9.736;2023-07-24T12:29:57;24.20;99.90
30648;DHT22;17683;53.360;9.736;2023-07-24T12:32:23;24.30;99.90
30648;DHT22;17683;53.360;9.736;2023-07-24T12:34:51;24.40;99.90
30648;DHT22;17683;53.360;9.736;2023-07-24T12:37:17;24.40;99.90
30648;DHT22;17683;53.360;9.736;2023-07-24T12:39:47;24.40;99.90
30648;DHT22;17683;53.360;9.736;2023-07-24T12:42:14;24.50;99.90
30648;DHT22;17683;53.360;9.736;2023-07-24T12:44:40;24.50;99.90
30648;DHT22;17683;53.360;9.736;2023-07-24T12:47:06;24.60;99.90
30648;DHT22;17683;53.360;9.736;2023-07-24T12:49:32;24.70;99.90
30648;DHT22;17683;53.360;9.736;2023-07-24T12:51:58;24.90;99.90
30648;DHT22;17683;53.360;9.736;2023-07-24T12:54:24;24.90;99.90
30648;DHT22;17683;53.360;9.736;2023-07-24T12:56:50;25.00;99.90
30648;DHT22;17683;53.360;9.736;2023-07-24T12:59:19;25.10;99.90
30648;DHT22;17683;53.360;9.736;2023-07-24T13:01:45;25.00;99.90
30648;DHT22;17683;53.360;9.736;2023-07-24T13:04:11;24.90;99.90
30648;DHT22;17683;53.360;9.736;2023-07-24T13:06:37;24.90;99.90
30648;DHT22;17683;53.360;9.736;2023-07-24T13:09:03;24.80;99.90
30648;DHT22;17683;53.360;9.736;2023-07-24T13:11:29;24.90;99.90
30648;DHT22;17683;53.360;9.736;2023-07-24T13:13:56;24.70;99.90
30648;DHT22;17683;53.360;9.736;2023-07-24T13:16:22;24.70;99.90
30648;DHT22;17683;53.360;9.736;2023-07-24T13:18:48;24.70;99.90
30648;DHT22;17683;53.360;9.736;2023-07-24T13:21:14;24.60;99.90
30648;DHT22;17683;53.360;9.736;2023-07-24T13:23:41;24.40;99.90
30648;DHT22;17683;53.360;9.736;2023-07-24T13:26:07;24.30;99.90
30648;DHT22;17683;53.360;9.736;2023-07-24T13:28:45;24.10;99.90
30648;DHT22;17683;53.360;9.736;2023-07-24T13:31:15;24.00;99.90
30648;DHT22;17683;53.360;9.736;2023-07-24T13:33:41;23.70;99.90
30648;DHT22;17683;53.360;9.736;2023-07-24T13:36:07;23.60;99.90
30648;DHT22;17683;53.360;9.736;2023-07-24T13:38:33;23.40;99.90
30648;DHT22;17683;53.360;9.736;2023-07-24T13:40:59;23.30;99.90
30648;DHT22;17683;53.360;9.736;2023-07-24T13:43:25;23.20;99.90
30648;DHT22;17683;53.360;9.736;2023-07-24T13:45:51;23.20;99.90
30648;DHT22;17683;53.360;9.736;2023-07-24T13:48:16;23.20;99.90
30648;DHT22;17683;53.360;9.736;2023-07-24T13:50:42;23.30;99.90
30648;DHT22;17683;53.360;9.736;2023-07-24T13:53:08;23.50;99.90
30648;DHT22;17683;53.360;9.736;2023-07-24T13:55:33;23.60;99.90
30648;DHT22;17683;53.360;9.736;2023-07-24T13:57:59;23.70;99.90
30648;DHT22;17683;53.360;9.736;2023-07-24T14:00:26;23.70;99.90
30648;DHT22;17683;53.360;9.736;2023-07-24T14:02:51;23.60;99.90
30648;DHT22;17683;53.360;9.736;2023-07-24T14:05:17;23.70;99.90
30648;DHT22;17683;53.360;9.736;2023-07-24T14:07:43;23.80;99.90
30648;DHT22;17683;53.360;9.736;2023-07-24T14:10:10;24.10;99.90
30648;DHT22;17683;53.360;9.736;2023-07-24T14:12:36;24.30;99.90
30648;DHT22;17683;53.360;9.736;2023-07-24T14:15:02;24.50;99.90
30648;DHT22;17683;53.360;9.736;2023-07-24T14:17:28;24.40;99.90
30648;DHT22;17683;53.360;9.736;2023-07-24T14:19:54;24.50;99.90
30648;DHT22;17683;53.360;9.736;2023-07-24T14:22:20;24.40;99.90
30648;DHT22;17683;53.360;9.736;2023-07-24T14:24:45;24.20;99.90
30648;DHT22;17683;53.360;9.736;2023-07-24T14:27:13;24.10;99.90
30648;DHT22;17683;53.360;9.736;2023-07-24T14:29:38;24.00;99.90
30648;DHT22;17683;53.360;9.736;2023-07-24T14:32:05;23.90;99.90
30648;DHT22;17683;53.360;9.736;2023-07-24T14:34:31;23.80;99.90
30648;DHT22;17683;53.360;9.736;2023-07-24T14:36:56;23.70;99.90
30648;DHT22;17683;53.360;9.736;2023-07-24T14:39:22;23.70;99.90
30648;DHT22;17683;53.360;9.736;2023-07-24T14:41:48;23.70;99.90
30648;DHT22;17683;53.360;9.736;2023-07-24T14:44:13;23.60;99.90
30648;DHT22;17683;53.360;9.736;2023-07-24T14:46:39;23.70;99.90
30648;DHT22;17683;53.360;9.736;2023-07-24T14:49:05;23.70;99.90
30648;DHT22;17683;53.360;9.736;2023-07-24T14:51:30;23.70;99.90
30648;DHT22;17683;53.360;9.736;2023-07-24T14:53:56;23.60;99.90
30648;DHT22;17683;53.360;9.736;2023-07-24T14:56:22;23.60;99.90
30648;DHT22;17683;53.360;9.736;2023-07-24T14:58:48;23.60;99.90
30648;DHT22;17683;53.360;9.736;2023-07-24T15:01:13;23.60;99.90
30648;DHT22;17683;53.360;9.736;2023-07-24T15:03:39;23.60;99.90
30648;DHT22;17683;53.360;9.736;2023-07-24T15:06:05;23.60;99.90
30648;DHT22;17683;53.360;9.736;2023-07-24T15:08:35;23.60;99.90
30648;DHT22;17683;53.360;9.736;2023-07-24T15:11:01;23.50;99.90
30648;DHT22;17683;53.360;9.736;2023-07-24T15:13:27;23.40;99.90
30648;DHT22;17683;53.360;9.736;2023-07-24T15:15:52;23.40;99.90
30648;DHT22;17683;53.360;9.736;2023-07-24T15:18:18;23.40;99.90
30648;DHT22;17683;53.360;9.736;2023-07-24T15:20:44;23.30;99.90
30648;DHT22;17683;53.360;9.736;2023-07-24T15:23:10;23.30;99.90
30648;DHT22;17683;53.360;9.736;2023-07-24T15:25:36;23.20;99.90
30648;DHT22;17683;53.360;9.736;2023-07-24T15:28:02;23.20;99.90
30648;DHT22;17683;53.360;9.736;2023-07-24T15:30:27;23.20;99.90
30648;DHT22;17683;53.360;9.736;2023-07-24T15:32:53;23.10;99.90